Pettus, Arkansas
Current Conditions -  °F | °C
As of 10:58 AM on Saturday 22 Nov 2014 (Local Time) from KLRF Reporting Station
Overcast Overcast  
Wind Chill: 60°   Ceiling: 3000
Heat Index: 60°   Visibility: 10mi
Dew Point: 49°   Wind: 8mph
Humidity: 68%   Direction: 170°S
Pressure: 30.18"   Gusts: NA
Location:  34.7557°N, 91.9476°W
Report Text: KLRF 221658Z AUTO 17007KT 150V210 10SM OVC030 16/10 A3018 RMK AO2 SLP223 T01550096
Loading
Personal Weather Stations






























Interactive Weather Map New forecast layout! Learn more

10-Day Weather Forecast

Advertisements
Track Severe Weather on mobile